createdAt,value
2017-05-29T00:00:04.111Z,932.62
2017-05-29T00:00:44.075Z,932.63
2017-05-29T00:00:56.426Z,932.68
2017-05-29T00:01:09.369Z,932.64
2017-05-29T00:01:22.258Z,932.68
2017-05-29T00:01:35.667Z,932.64
2017-05-29T00:01:48.056Z,932.67
2017-05-29T00:02:00.405Z,932.69
2017-05-29T00:02:13.318Z,932.68
2017-05-29T00:02:26.831Z,932.68
2017-05-29T00:02:39.706Z,932.67
2017-05-29T00:02:52.058Z,932.74
2017-05-29T00:03:05.511Z,932.73
2017-05-29T00:03:18.874Z,932.71
2017-05-29T00:03:31.763Z,932.74
2017-05-29T00:03:45.209Z,932.71
2017-05-29T00:03:58.705Z,932.74
2017-05-29T00:04:11.091Z,932.72
2017-05-29T00:04:24.530Z,932.73
2017-05-29T00:04:37.848Z,932.74
2017-05-29T00:05:21.964Z,932.73
2017-05-29T00:06:51.889Z,932.76
2017-05-29T00:07:17.649Z,932.78
2017-05-29T00:09:04.529Z,932.76
2017-05-29T00:14:40.862Z,932.8
2017-05-29T00:14:54.278Z,932.83
2017-05-29T00:15:07.738Z,932.83
2017-05-29T00:15:19.598Z,932.81
2017-05-29T00:15:32.484Z,932.8
2017-05-29T00:16:40.834Z,932.82
2017-05-29T00:16:54.237Z,932.81
2017-05-29T00:17:07.075Z,932.82
2017-05-29T00:17:19.880Z,932.84
2017-05-29T00:17:33.314Z,932.82
2017-05-29T00:17:46.719Z,932.81
2017-05-29T00:17:59.557Z,932.82
2017-05-29T00:18:12.990Z,932.85
2017-05-29T00:18:26.406Z,932.85
2017-05-29T00:18:39.284Z,932.83
2017-05-29T00:18:52.702Z,932.86
2017-05-29T00:19:05.552Z,932.84
2017-05-29T00:19:17.952Z,932.84
2017-05-29T00:21:51.144Z,932.9
2017-05-29T00:22:05.225Z,932.86
2017-05-29T00:23:18.991Z,932.86
2017-05-29T00:23:32.367Z,932.9
2017-05-29T00:23:45.295Z,932.88
2017-05-29T00:23:58.762Z,932.83
2017-05-29T00:24:11.116Z,932.89
2017-05-29T00:24:23.982Z,932.85
2017-05-29T00:24:37.412Z,932.88
2017-05-29T00:24:50.953Z,932.83
2017-05-29T00:25:03.580Z,932.87
2017-05-29T00:25:16.509Z,932.85
2017-05-29T00:25:29.907Z,932.86
2017-05-29T00:25:43.289Z,932.85
2017-05-29T00:27:18.704Z,932.85
2017-05-29T00:30:59.445Z,932.82
2017-05-29T00:34:26.945Z,932.81
2017-05-29T00:36:13.984Z,932.81
2017-05-29T00:36:54.049Z,932.8
2017-05-29T00:37:06.991Z,932.79
2017-05-29T00:37:20.329Z,932.79
2017-05-29T00:37:33.241Z,932.78
2017-05-29T00:37:46.769Z,932.81
2017-05-29T00:38:00.122Z,932.81
2017-05-29T00:38:13.042Z,932.8
2017-05-29T00:38:26.477Z,932.8
2017-05-29T00:53:59.495Z,932.82
2017-05-29T00:54:47.776Z,932.83
2017-05-29T00:55:01.181Z,932.85
2017-05-29T00:55:14.045Z,932.86
2017-05-29T00:55:26.973Z,932.86
2017-05-29T00:55:40.390Z,932.86
2017-05-29T00:55:53.793Z,932.86
2017-05-29T00:56:06.738Z,932.86
2017-05-29T00:56:20.166Z,932.87
2017-05-29T00:56:33.036Z,932.87
2017-05-29T00:56:45.859Z,932.85
2017-05-29T00:56:59.386Z,932.87
2017-05-29T00:57:12.809Z,932.88
2017-05-29T00:57:25.813Z,932.84
2017-05-29T00:59:30.139Z,932.86
2017-05-29T00:59:43.522Z,932.87
2017-05-29T00:59:56.504Z,932.83
2017-05-29T01:00:10.121Z,932.86
2017-05-29T01:00:23.472Z,932.88
2017-05-29T01:00:36.972Z,932.84
2017-05-29T01:00:49.833Z,932.84
2017-05-29T01:01:03.263Z,932.83
2017-05-29T01:01:16.247Z,932.87
2017-05-29T01:01:29.133Z,932.82
2017-05-29T01:01:42.019Z,932.9
2017-05-29T01:02:58.970Z,932.8
2017-05-29T01:05:11.970Z,932.86
2017-05-29T01:06:27.739Z,932.86
2017-05-29T01:07:43.384Z,932.84
2017-05-29T01:08:57.798Z,932.87
2017-05-29T01:09:11.239Z,932.9
2017-05-29T01:09:24.086Z,932.87
2017-05-29T01:09:37.700Z,932.88
2017-05-29T01:09:51.186Z,932.88
2017-05-29T01:10:41.049Z,932.86
2017-05-29T01:10:53.938Z,932.87
2017-05-29T01:12:35.581Z,932.87
2017-05-29T01:14:06.439Z,932.86
2017-05-29T01:15:27.640Z,932.84
2017-05-29T01:16:11.165Z,932.82
2017-05-29T01:19:58.628Z,932.84
2017-05-29T01:20:46.444Z,932.84
2017-05-29T01:21:56.714Z,932.89
2017-05-29T01:23:15.717Z,932.86
2017-05-29T01:27:39.133Z,932.92
2017-05-29T01:27:52.101Z,932.91
2017-05-29T01:28:04.995Z,932.92
2017-05-29T01:28:17.323Z,932.92
2017-05-29T01:28:30.209Z,932.92
2017-05-29T01:28:43.079Z,932.9
2017-05-29T01:28:56.599Z,932.89
2017-05-29T01:29:10.051Z,932.88
2017-05-29T01:29:23.504Z,932.9
2017-05-29T01:29:36.395Z,932.89
2017-05-29T01:29:49.813Z,932.9
2017-05-29T01:30:03.199Z,932.9
2017-05-29T01:30:32.111Z,932.87
2017-05-29T01:31:47.797Z,932.9
2017-05-29T01:32:32.312Z,932.87
2017-05-29T01:32:57.971Z,932.9
2017-05-29T01:33:41.742Z,932.89
2017-05-29T01:34:11.698Z,932.88
2017-05-29T01:36:51.651Z,932.92
2017-05-29T01:37:36.208Z,932.95
2017-05-29T01:38:20.794Z,932.95
2017-05-29T01:39:20.306Z,933
2017-05-29T01:40:36.169Z,933
2017-05-29T01:43:30.185Z,932.93
2017-05-29T01:43:43.608Z,932.96
2017-05-29T01:46:05.345Z,932.91
2017-05-29T01:47:07.790Z,932.9
2017-05-29T01:47:20.769Z,932.9
2017-05-29T01:47:34.248Z,932.86
2017-05-29T01:47:47.754Z,932.91
2017-05-29T01:48:00.666Z,932.91
2017-05-29T01:48:14.336Z,932.93
2017-05-29T01:48:27.264Z,932.89
2017-05-29T01:48:40.770Z,932.94
2017-05-29T01:48:54.206Z,932.91
2017-05-29T01:49:06.100Z,932.9
2017-05-29T01:49:19.167Z,932.91
2017-05-29T01:51:19.106Z,932.89
2017-05-29T01:51:47.043Z,932.88
2017-05-29T01:51:59.897Z,932.91
2017-05-29T01:52:13.318Z,932.91
2017-05-29T01:52:26.792Z,932.91
2017-05-29T01:53:11.639Z,932.9
2017-05-29T01:53:55.683Z,932.9
2017-05-29T01:54:45.569Z,932.92
2017-05-29T01:56:00.734Z,932.91
2017-05-29T01:56:18.656Z,932.88
2017-05-29T02:01:30.643Z,932.88
2017-05-29T02:01:44.056Z,932.91
2017-05-29T02:01:57.481Z,932.89
2017-05-29T02:02:10.362Z,932.84
2017-05-29T02:02:23.166Z,932.87
2017-05-29T02:02:36.572Z,932.88
2017-05-29T02:02:50.026Z,932.89
2017-05-29T02:03:03.410Z,932.84
2017-05-29T02:03:16.776Z,932.86
2017-05-29T02:05:50.380Z,932.87
2017-05-29T02:06:04.225Z,932.88
2017-05-29T02:07:19.913Z,932.89
2017-05-29T02:08:03.946Z,932.86
2017-05-29T02:09:50.809Z,932.93
2017-05-29T02:10:58.116Z,932.9
2017-05-29T02:11:42.713Z,932.91
2017-05-29T02:12:57.880Z,932.92
2017-05-29T02:13:41.908Z,932.93
2017-05-29T02:17:15.692Z,932.92
2017-05-29T02:19:47.044Z,932.82
2017-05-29T02:19:59.403Z,932.84
2017-05-29T02:20:12.183Z,932.82
2017-05-29T02:20:25.502Z,932.82
2017-05-29T02:20:38.310Z,932.81
2017-05-29T02:20:51.631Z,932.82
2017-05-29T02:21:04.989Z,932.81
2017-05-29T02:21:17.336Z,932.79
2017-05-29T02:21:30.782Z,932.79
2017-05-29T02:21:44.360Z,932.78
2017-05-29T02:21:57.332Z,932.79
2017-05-29T02:24:38.308Z,932.65
2017-05-29T02:25:35.591Z,932.64
2017-05-29T02:26:46.077Z,932.67
2017-05-29T02:28:41.514Z,932.69
2017-05-29T02:29:39.812Z,932.66
2017-05-29T02:30:55.488Z,932.65
2017-05-29T02:33:34.406Z,932.64
2017-05-29T02:33:47.837Z,932.68
2017-05-29T02:34:14.460Z,932.65
2017-05-29T02:35:30.602Z,932.65
2017-05-29T02:35:57.640Z,932.66
2017-05-29T02:37:13.383Z,932.66
2017-05-29T02:37:26.527Z,932.63
2017-05-29T02:38:00.234Z,932.62
2017-05-29T02:38:12.660Z,932.64
2017-05-29T02:38:25.631Z,932.62
2017-05-29T02:38:39.024Z,932.66
2017-05-29T02:38:52.365Z,932.62
2017-05-29T02:39:05.714Z,932.65
2017-05-29T02:39:19.102Z,932.65
2017-05-29T02:39:31.929Z,932.62
2017-05-29T02:39:45.262Z,932.63
2017-05-29T02:39:58.571Z,932.61
2017-05-29T02:40:11.468Z,932.58
2017-05-29T02:40:24.774Z,932.62
2017-05-29T02:40:38.020Z,932.61
2017-05-29T02:42:04.272Z,932.59
2017-05-29T02:42:22.953Z,932.6
2017-05-29T02:42:36.466Z,932.56
2017-05-29T02:44:17.776Z,932.54
2017-05-29T02:45:15.806Z,932.51
2017-05-29T02:45:29.902Z,932.52
2017-05-29T02:45:45.287Z,932.52
2017-05-29T02:45:58.942Z,932.51
2017-05-29T02:46:17.462Z,932.54
2017-05-29T02:47:07.097Z,932.51
2017-05-29T02:47:19.423Z,932.52
2017-05-29T02:47:38.299Z,932.52
2017-05-29T02:48:22.889Z,932.53
2017-05-29T02:49:21.937Z,932.53
2017-05-29T02:50:24.799Z,932.54
2017-05-29T02:50:40.231Z,932.53
2017-05-29T02:51:30.083Z,932.53
2017-05-29T02:51:43.591Z,932.55
2017-05-29T02:52:02.113Z,932.52
2017-05-29T02:52:15.654Z,932.53
2017-05-29T02:52:48.333Z,932.52
2017-05-29T02:53:39.195Z,932.52
2017-05-29T02:53:52.596Z,932.49
2017-05-29T02:54:17.828Z,932.49
2017-05-29T02:54:31.352Z,932.48
2017-05-29T02:54:44.748Z,932.48
2017-05-29T02:54:57.675Z,932.47
2017-05-29T02:55:10.550Z,932.46
2017-05-29T02:55:23.044Z,932.46
2017-05-29T02:55:35.963Z,932.45
2017-05-29T02:55:48.824Z,932.41
2017-05-29T02:56:01.310Z,932.42
2017-05-29T02:56:14.974Z,932.42
2017-05-29T02:56:59.563Z,932.44
2017-05-29T02:57:46.092Z,932.42
2017-05-29T02:58:30.596Z,932.43
2017-05-29T02:58:49.019Z,932.42
2017-05-29T02:59:02.372Z,932.41
2017-05-29T02:59:15.328Z,932.44
2017-05-29T02:59:28.180Z,932.43
2017-05-29T02:59:41.023Z,932.43
2017-05-29T02:59:54.449Z,932.42
2017-05-29T03:00:07.933Z,932.46
2017-05-29T03:00:20.779Z,932.45
2017-05-29T03:00:33.785Z,932.45
2017-05-29T03:00:47.157Z,932.46
2017-05-29T03:01:00.547Z,932.45
2017-05-29T03:01:47.821Z,932.45
2017-05-29T03:02:00.949Z,932.46
2017-05-29T03:02:36.517Z,932.48
2017-05-29T03:02:49.380Z,932.5
2017-05-29T03:03:02.781Z,932.5
2017-05-29T03:03:14.091Z,932.49
2017-05-29T03:03:27.508Z,932.45
2017-05-29T03:03:41.032Z,932.48
2017-05-29T03:03:53.878Z,932.48
2017-05-29T03:04:07.665Z,932.49
2017-05-29T03:04:23.245Z,932.45
2017-05-29T03:04:36.982Z,932.48
2017-05-29T03:04:53.966Z,932.46
2017-05-29T03:05:08.367Z,932.47
2017-05-29T03:05:21.377Z,932.45
2017-05-29T03:05:35.741Z,932.48
2017-05-29T03:05:49.932Z,932.45
2017-05-29T03:06:03.409Z,932.48
2017-05-29T03:06:17.019Z,932.49
2017-05-29T03:06:29.930Z,932.5
2017-05-29T03:06:44.644Z,932.47
2017-05-29T03:06:58.365Z,932.47
2017-05-29T03:07:11.361Z,932.48
2017-05-29T03:07:24.826Z,932.49
2017-05-29T03:07:38.477Z,932.46
2017-05-29T03:07:52.794Z,932.48
2017-05-29T03:08:07.209Z,932.47
2017-05-29T03:08:21.304Z,932.46
2017-05-29T03:08:34.807Z,932.45
2017-05-29T03:08:56.539Z,932.44
2017-05-29T03:09:09.955Z,932.43
2017-05-29T03:09:23.346Z,932.43
2017-05-29T03:09:36.366Z,932.44
2017-05-29T03:09:49.848Z,932.42
2017-05-29T03:10:03.317Z,932.44
2017-05-29T03:10:15.742Z,932.43
2017-05-29T03:10:29.862Z,932.41
2017-05-29T03:10:42.720Z,932.45
2017-05-29T03:10:56.237Z,932.44
2017-05-29T03:11:09.106Z,932.44
2017-05-29T03:11:21.540Z,932.42
2017-05-29T03:11:34.931Z,932.45
2017-05-29T03:11:48.381Z,932.48
2017-05-29T03:12:01.762Z,932.46
2017-05-29T03:12:14.218Z,932.49
2017-05-29T03:12:26.615Z,932.45
2017-05-29T03:12:38.994Z,932.45
2017-05-29T03:12:52.376Z,932.47
2017-05-29T03:13:05.259Z,932.49
2017-05-29T03:13:18.672Z,932.47
2017-05-29T03:13:31.701Z,932.49
2017-05-29T03:13:44.034Z,932.5
2017-05-29T03:13:57.486Z,932.48
2017-05-29T03:14:10.821Z,932.53
2017-05-29T03:14:26.844Z,932.48
2017-05-29T03:14:39.243Z,932.51
2017-05-29T03:14:52.725Z,932.53
2017-05-29T03:15:06.153Z,932.51
2017-05-29T03:15:19.002Z,932.49
2017-05-29T03:15:32.465Z,932.54
2017-05-29T03:15:45.964Z,932.55
2017-05-29T03:15:59.422Z,932.52
2017-05-29T03:16:12.850Z,932.49
2017-05-29T03:16:26.191Z,932.48
2017-05-29T03:16:39.643Z,932.52
2017-05-29T03:16:52.989Z,932.49
2017-05-29T03:17:05.357Z,932.51
2017-05-29T03:17:18.790Z,932.51
2017-05-29T03:17:31.797Z,932.51
2017-05-29T03:17:45.181Z,932.54
2017-05-29T03:17:58.587Z,932.55
2017-05-29T03:18:11.730Z,932.51
2017-05-29T03:18:24.612Z,932.56
2017-05-29T03:18:38.048Z,932.54
2017-05-29T03:18:51.650Z,932.5
2017-05-29T03:19:04.584Z,932.53
2017-05-29T03:19:18.068Z,932.55
2017-05-29T03:19:30.419Z,932.53
2017-05-29T03:19:43.411Z,932.56
2017-05-29T03:19:56.867Z,932.54
2017-05-29T03:20:09.317Z,932.55
2017-05-29T03:20:21.723Z,932.54
2017-05-29T03:20:35.136Z,932.54
2017-05-29T03:20:48.600Z,932.49
2017-05-29T03:21:02.092Z,932.54
2017-05-29T03:21:16.293Z,932.51
2017-05-29T03:21:29.694Z,932.54
2017-05-29T03:21:42.041Z,932.51
2017-05-29T03:21:55.566Z,932.54
2017-05-29T03:22:08.576Z,932.53
2017-05-29T03:22:21.545Z,932.53
2017-05-29T03:22:34.972Z,932.52
2017-05-29T03:22:47.850Z,932.52
2017-05-29T03:23:01.327Z,932.55
2017-05-29T03:23:14.207Z,932.53
2017-05-29T03:23:27.637Z,932.54
2017-05-29T03:23:40.598Z,932.52
2017-05-29T03:23:54.111Z,932.54
2017-05-29T03:24:07.062Z,932.55
2017-05-29T03:24:20.506Z,932.53
2017-05-29T03:24:33.325Z,932.53
2017-05-29T03:24:46.175Z,932.53
2017-05-29T03:24:59.602Z,932.53
2017-05-29T03:25:12.045Z,932.52
2017-05-29T03:25:24.984Z,932.54
2017-05-29T03:25:38.435Z,932.51
2017-05-29T03:25:50.792Z,932.52
2017-05-29T03:26:03.739Z,932.54
2017-05-29T03:26:16.172Z,932.55
2017-05-29T03:26:28.534Z,932.54
2017-05-29T03:26:41.961Z,932.53
2017-05-29T03:26:54.843Z,932.56
2017-05-29T03:27:07.169Z,932.56
2017-05-29T03:27:19.992Z,932.57
2017-05-29T03:27:33.394Z,932.54
2017-05-29T03:27:46.807Z,932.57
2017-05-29T03:27:59.710Z,932.56
2017-05-29T03:28:12.628Z,932.56
2017-05-29T03:28:25.624Z,932.57
2017-05-29T03:28:38.556Z,932.58
2017-05-29T03:28:51.995Z,932.56
2017-05-29T03:29:05.449Z,932.59
2017-05-29T03:29:18.890Z,932.58
2017-05-29T03:29:32.360Z,932.58
2017-05-29T03:29:45.705Z,932.59
2017-05-29T03:29:59.282Z,932.59
2017-05-29T03:30:12.693Z,932.6
2017-05-29T03:30:25.540Z,932.59
2017-05-29T03:30:38.025Z,932.58
2017-05-29T03:30:50.925Z,932.58
2017-05-29T03:31:03.806Z,932.57
2017-05-29T03:31:17.288Z,932.61
2017-05-29T03:31:30.700Z,932.59
2017-05-29T03:31:44.181Z,932.6
2017-05-29T03:31:57.147Z,932.56
2017-05-29T03:32:10.018Z,932.6
2017-05-29T03:32:23.455Z,932.59
2017-05-29T03:32:35.802Z,932.59
2017-05-29T03:32:49.239Z,932.61
2017-05-29T03:33:02.634Z,932.62
2017-05-29T03:33:16.011Z,932.59
2017-05-29T03:33:28.914Z,932.6
2017-05-29T03:33:42.373Z,932.6
2017-05-29T03:33:55.810Z,932.59
2017-05-29T03:34:08.657Z,932.61
2017-05-29T03:34:22.119Z,932.6
2017-05-29T03:34:35.570Z,932.59
2017-05-29T03:34:48.900Z,932.6
2017-05-29T03:35:02.371Z,932.59
2017-05-29T03:35:15.832Z,932.6
2017-05-29T03:35:29.263Z,932.58
2017-05-29T03:35:42.699Z,932.6
2017-05-29T03:35:56.113Z,932.6
2017-05-29T03:36:09.548Z,932.61
2017-05-29T03:36:22.411Z,932.62
2017-05-29T03:36:35.283Z,932.58
2017-05-29T03:36:48.680Z,932.6
2017-05-29T03:37:02.044Z,932.63
2017-05-29T03:37:14.990Z,932.59
2017-05-29T03:37:28.035Z,932.6
2017-05-29T03:37:41.453Z,932.6
2017-05-29T03:37:53.852Z,932.6
2017-05-29T03:38:06.205Z,932.59
2017-05-29T03:38:19.679Z,932.61
2017-05-29T03:38:32.573Z,932.57
2017-05-29T03:38:45.561Z,932.58
2017-05-29T03:38:58.443Z,932.57
2017-05-29T03:39:10.820Z,932.53
2017-05-29T03:39:23.771Z,932.55
2017-05-29T03:39:36.637Z,932.6
2017-05-29T03:39:50.050Z,932.58
2017-05-29T03:40:02.946Z,932.58
2017-05-29T03:40:15.338Z,932.56
2017-05-29T03:40:28.187Z,932.6
2017-05-29T03:40:41.553Z,932.59
2017-05-29T03:40:54.978Z,932.58
2017-05-29T03:41:07.848Z,932.56
2017-05-29T03:41:21.188Z,932.54
2017-05-29T03:41:34.586Z,932.59
2017-05-29T03:41:48.009Z,932.61
2017-05-29T03:42:00.881Z,932.58
2017-05-29T03:42:13.761Z,932.55
2017-05-29T03:42:26.094Z,932.6
2017-05-29T03:42:39.529Z,932.56
2017-05-29T03:42:52.361Z,932.53
2017-05-29T03:43:04.782Z,932.56
2017-05-29T03:43:17.707Z,932.54
2017-05-29T03:43:31.136Z,932.57
2017-05-29T03:43:44.052Z,932.57
2017-05-29T03:43:56.933Z,932.54
2017-05-29T03:44:09.878Z,932.54
2017-05-29T03:44:23.317Z,932.51
2017-05-29T03:44:36.753Z,932.55
2017-05-29T03:44:50.145Z,932.56
2017-05-29T03:45:03.008Z,932.54
2017-05-29T03:45:15.876Z,932.56
2017-05-29T03:45:29.252Z,932.58
2017-05-29T03:45:42.676Z,932.55
2017-05-29T03:45:56.040Z,932.55
2017-05-29T03:46:08.411Z,932.56
2017-05-29T03:46:21.818Z,932.57
2017-05-29T03:46:35.187Z,932.56
2017-05-29T03:46:48.543Z,932.52
2017-05-29T03:47:00.879Z,932.55
2017-05-29T03:47:13.760Z,932.52
2017-05-29T03:47:26.735Z,932.52
2017-05-29T03:47:39.606Z,932.52
2017-05-29T03:47:52.544Z,932.51
2017-05-29T03:48:04.969Z,932.49
2017-05-29T03:48:17.302Z,932.51
2017-05-29T03:48:30.143Z,932.5
2017-05-29T03:48:42.962Z,932.51
2017-05-29T03:48:55.883Z,932.47
2017-05-29T03:49:08.462Z,932.47
2017-05-29T03:49:20.777Z,932.45
2017-05-29T03:49:33.692Z,932.48
2017-05-29T03:49:47.053Z,932.49
2017-05-29T03:49:59.883Z,932.48
2017-05-29T03:50:12.725Z,932.5
2017-05-29T03:50:25.634Z,932.48
2017-05-29T03:50:38.485Z,932.47
2017-05-29T03:50:51.407Z,932.47
2017-05-29T03:51:04.771Z,932.47
2017-05-29T03:51:29.739Z,932.46
2017-05-29T03:51:42.583Z,932.46
2017-05-29T03:51:55.549Z,932.42
2017-05-29T03:52:07.864Z,932.44
2017-05-29T03:52:20.858Z,932.41
2017-05-29T03:52:33.987Z,932.44
2017-05-29T03:52:47.559Z,932.42
2017-05-29T03:53:00.962Z,932.45
2017-05-29T03:53:13.664Z,932.41
2017-05-29T03:53:26.590Z,932.38
2017-05-29T03:53:39.575Z,932.39
2017-05-29T03:53:52.949Z,932.42
2017-05-29T03:54:05.850Z,932.39
2017-05-29T03:54:17.642Z,932.39
2017-05-29T03:54:30.544Z,932.39
2017-05-29T03:54:43.951Z,932.41
2017-05-29T03:54:57.446Z,932.39
2017-05-29T03:55:10.358Z,932.41
2017-05-29T03:55:23.814Z,932.41
2017-05-29T03:55:36.733Z,932.38
2017-05-29T03:55:50.154Z,932.41
2017-05-29T03:56:03.535Z,932.44
2017-05-29T03:56:15.895Z,932.42
2017-05-29T03:56:29.307Z,932.39
2017-05-29T03:56:42.261Z,932.37
2017-05-29T03:56:55.182Z,932.42
2017-05-29T03:57:08.109Z,932.41
2017-05-29T03:57:21.007Z,932.38
2017-05-29T03:57:34.402Z,932.4
2017-05-29T03:57:47.799Z,932.39
2017-05-29T03:58:00.718Z,932.41
2017-05-29T03:58:13.122Z,932.4
2017-05-29T03:58:25.412Z,932.41
2017-05-29T03:58:38.810Z,932.39
2017-05-29T03:58:51.780Z,932.38
2017-05-29T03:59:05.213Z,932.38
2017-05-29T03:59:17.647Z,932.37
2017-05-29T03:59:30.564Z,932.39
2017-05-29T03:59:44.009Z,932.4
2017-05-29T03:59:56.892Z,932.36
2017-05-29T04:00:10.374Z,932.37
2017-05-29T04:00:22.718Z,932.41
2017-05-29T04:00:36.057Z,932.37
2017-05-29T04:00:49.476Z,932.38
2017-05-29T04:01:02.336Z,932.37
2017-05-29T04:01:14.674Z,932.4
2017-05-29T04:01:28.090Z,932.39
2017-05-29T04:01:41.448Z,932.38
2017-05-29T04:01:54.903Z,932.36
2017-05-29T04:02:08.409Z,932.38
2017-05-29T04:02:21.831Z,932.4
2017-05-29T04:02:34.745Z,932.43
2017-05-29T04:02:48.172Z,932.39
2017-05-29T04:03:01.078Z,932.4
2017-05-29T04:03:14.006Z,932.37
2017-05-29T04:03:27.144Z,932.39
2017-05-29T04:03:40.294Z,932.37
2017-05-29T04:03:53.780Z,932.4
2017-05-29T04:04:07.259Z,932.37
2017-05-29T04:04:21.047Z,932.4
2017-05-29T04:04:33.432Z,932.38
2017-05-29T04:04:46.810Z,932.38
2017-05-29T04:04:59.188Z,932.39
2017-05-29T04:05:12.060Z,932.41
2017-05-29T04:05:24.934Z,932.4
2017-05-29T04:05:37.950Z,932.38
2017-05-29T04:05:51.349Z,932.43
2017-05-29T04:06:04.209Z,932.37
2017-05-29T04:06:17.048Z,932.42
2017-05-29T04:06:30.656Z,932.42
2017-05-29T04:06:43.538Z,932.39
2017-05-29T04:06:56.918Z,932.41
2017-05-29T04:07:10.352Z,932.39
2017-05-29T04:07:23.457Z,932.41
2017-05-29T04:07:36.432Z,932.42
2017-05-29T04:07:49.314Z,932.38
2017-05-29T04:08:02.210Z,932.43
2017-05-29T04:08:15.601Z,932.4
2017-05-29T04:08:27.967Z,932.41
2017-05-29T04:08:41.563Z,932.41
2017-05-29T04:08:54.980Z,932.4
2017-05-29T04:09:07.828Z,932.4
2017-05-29T04:09:20.813Z,932.41
2017-05-29T04:09:34.270Z,932.4
2017-05-29T04:09:47.709Z,932.4
2017-05-29T04:10:00.574Z,932.41
2017-05-29T04:10:13.445Z,932.39
2017-05-29T04:10:26.340Z,932.4
2017-05-29T04:10:39.806Z,932.43
2017-05-29T04:10:52.710Z,932.43
2017-05-29T04:11:05.607Z,932.42
2017-05-29T04:11:18.973Z,932.41
2017-05-29T04:11:31.868Z,932.41
2017-05-29T04:11:45.337Z,932.38
2017-05-29T04:11:57.884Z,932.38
2017-05-29T04:12:10.656Z,932.39
2017-05-29T04:12:24.086Z,932.38
2017-05-29T04:12:37.005Z,932.38
2017-05-29T04:12:50.416Z,932.4
2017-05-29T04:13:03.797Z,932.39
2017-05-29T04:13:17.254Z,932.36
2017-05-29T04:13:29.317Z,932.38
2017-05-29T04:13:41.710Z,932.4
2017-05-29T04:13:55.138Z,932.38
2017-05-29T04:14:08.574Z,932.38
2017-05-29T04:14:22.057Z,932.37
2017-05-29T04:14:34.978Z,932.38
2017-05-29T04:14:47.833Z,932.39
2017-05-29T04:15:01.233Z,932.37
2017-05-29T04:15:14.113Z,932.38
2017-05-29T04:15:27.001Z,932.32
2017-05-29T04:15:39.907Z,932.37
2017-05-29T04:15:53.306Z,932.33
2017-05-29T04:16:06.671Z,932.38
2017-05-29T04:16:19.092Z,932.38
2017-05-29T04:16:32.464Z,932.34
2017-05-29T04:16:45.941Z,932.36
2017-05-29T04:16:59.371Z,932.34
2017-05-29T04:17:12.745Z,932.34
2017-05-29T04:17:25.117Z,932.33
2017-05-29T04:17:38.047Z,932.35
2017-05-29T04:17:51.491Z,932.34
2017-05-29T04:18:04.951Z,932.32
2017-05-29T04:18:17.916Z,932.37
2017-05-29T04:18:30.250Z,932.38
2017-05-29T04:18:43.644Z,932.35
2017-05-29T04:18:57.104Z,932.34
2017-05-29T04:19:10.533Z,932.35
2017-05-29T04:19:23.193Z,932.36
2017-05-29T04:19:36.644Z,932.32
2017-05-29T04:19:49.997Z,932.35
2017-05-29T04:20:02.374Z,932.37
2017-05-29T04:20:15.277Z,932.38
2017-05-29T04:20:28.632Z,932.35
2017-05-29T04:20:41.511Z,932.37
2017-05-29T04:20:54.876Z,932.36
2017-05-29T04:21:06.697Z,932.38
2017-05-29T04:21:19.630Z,932.36
2017-05-29T04:21:31.940Z,932.37
2017-05-29T04:21:44.841Z,932.3
2017-05-29T04:21:57.884Z,932.31
2017-05-29T04:22:10.744Z,932.33
2017-05-29T04:22:24.078Z,932.32
2017-05-29T04:22:37.513Z,932.32
2017-05-29T04:22:50.938Z,932.27
2017-05-29T04:23:04.403Z,932.31
2017-05-29T04:23:17.327Z,932.32
2017-05-29T04:23:30.197Z,932.36
2017-05-29T04:23:43.674Z,932.33
2017-05-29T04:23:56.577Z,932.33
2017-05-29T04:24:09.455Z,932.32
2017-05-29T04:24:22.345Z,932.3
2017-05-29T04:24:35.255Z,932.33
2017-05-29T04:24:48.692Z,932.34
2017-05-29T04:25:01.631Z,932.3
2017-05-29T04:25:13.949Z,932.32
2017-05-29T04:25:26.984Z,932.29
2017-05-29T04:25:40.335Z,932.33
2017-05-29T04:25:53.782Z,932.3
2017-05-29T04:26:06.697Z,932.31
2017-05-29T04:26:19.066Z,932.29
2017-05-29T04:26:32.451Z,932.3
2017-05-29T04:26:45.777Z,932.29
2017-05-29T04:26:59.119Z,932.28
2017-05-29T04:27:12.560Z,932.3
2017-05-29T04:27:25.922Z,932.28
2017-05-29T04:27:38.931Z,932.29
2017-05-29T04:27:52.351Z,932.3
2017-05-29T04:28:05.726Z,932.26
2017-05-29T04:28:18.115Z,932.3
2017-05-29T04:28:31.032Z,932.26
2017-05-29T04:28:44.494Z,932.29
2017-05-29T04:28:57.841Z,932.29
2017-05-29T04:29:11.211Z,932.29
2017-05-29T04:29:24.029Z,932.29
2017-05-29T04:29:37.024Z,932.27
2017-05-29T04:29:50.491Z,932.31
2017-05-29T04:30:03.469Z,932.27
2017-05-29T04:30:16.292Z,932.28
2017-05-29T04:30:29.710Z,932.31
2017-05-29T04:30:43.298Z,932.27
2017-05-29T04:30:56.239Z,932.29
2017-05-29T04:31:09.114Z,932.25
2017-05-29T04:31:22.535Z,932.27
2017-05-29T04:31:35.372Z,932.28
2017-05-29T04:31:48.210Z,932.28
2017-05-29T04:32:01.107Z,932.28
2017-05-29T04:32:13.999Z,932.26
2017-05-29T04:32:26.369Z,932.29
2017-05-29T04:32:39.208Z,932.28
2017-05-29T04:32:52.705Z,932.27
2017-05-29T04:33:06.130Z,932.31
2017-05-29T04:33:19.005Z,932.29
2017-05-29T04:33:31.892Z,932.27
2017-05-29T04:33:44.260Z,932.29
2017-05-29T04:33:57.714Z,932.28
2017-05-29T04:34:11.141Z,932.26
2017-05-29T04:34:24.904Z,932.25
2017-05-29T04:34:38.265Z,932.28
2017-05-29T04:34:51.162Z,932.3
2017-05-29T04:35:04.558Z,932.26
2017-05-29T04:35:16.946Z,932.24
2017-05-29T04:35:29.837Z,932.23
2017-05-29T04:35:43.211Z,932.24
2017-05-29T04:35:56.088Z,932.25
2017-05-29T04:36:09.534Z,932.23
2017-05-29T04:36:22.396Z,932.24
2017-05-29T04:36:35.743Z,932.22
2017-05-29T04:36:49.170Z,932.23
2017-05-29T04:37:02.065Z,932.22
2017-05-29T04:37:15.402Z,932.23
2017-05-29T04:37:28.862Z,932.22
2017-05-29T04:37:41.771Z,932.25
2017-05-29T04:37:55.112Z,932.21
2017-05-29T04:38:07.954Z,932.2
2017-05-29T04:38:20.823Z,932.18
2017-05-29T04:38:34.284Z,932.2
2017-05-29T04:38:47.167Z,932.19
2017-05-29T04:39:00.617Z,932.19
2017-05-29T04:39:14.047Z,932.19
2017-05-29T04:39:26.978Z,932.17
2017-05-29T04:39:40.363Z,932.16
2017-05-29T04:39:53.769Z,932.19
2017-05-29T04:40:06.739Z,932.19
2017-05-29T04:40:19.664Z,932.17
2017-05-29T04:40:32.544Z,932.16
2017-05-29T04:40:45.979Z,932.14
2017-05-29T04:40:59.347Z,932.17
2017-05-29T04:41:12.790Z,932.14
2017-05-29T04:41:25.664Z,932.13
2017-05-29T04:41:38.545Z,932.13
2017-05-29T04:41:51.393Z,932.18
2017-05-29T04:42:04.269Z,932.15
2017-05-29T04:42:16.293Z,932.16
2017-05-29T04:42:29.709Z,932.13
2017-05-29T04:42:43.224Z,932.17
2017-05-29T04:42:56.139Z,932.1
2017-05-29T04:43:08.575Z,932.16
2017-05-29T04:43:21.887Z,932.11
2017-05-29T04:43:34.261Z,932.13
2017-05-29T04:43:47.581Z,932.14
2017-05-29T04:44:00.461Z,932.15
2017-05-29T04:44:13.289Z,932.14
2017-05-29T04:44:26.670Z,932.12
2017-05-29T04:44:39.514Z,932.12
2017-05-29T04:44:53.029Z,932.13
2017-05-29T04:45:05.896Z,932.14
2017-05-29T04:45:19.249Z,932.12
2017-05-29T04:45:31.581Z,932.13
2017-05-29T04:45:44.167Z,932.14
2017-05-29T04:45:57.042Z,932.11
2017-05-29T04:46:09.918Z,932.17
2017-05-29T04:46:23.392Z,932.16
2017-05-29T04:46:36.304Z,932.15
2017-05-29T04:46:49.169Z,932.16
2017-05-29T04:47:02.072Z,932.17
2017-05-29T04:47:15.478Z,932.13
2017-05-29T04:47:28.849Z,932.14
2017-05-29T04:47:41.792Z,932.11
2017-05-29T04:47:55.270Z,932.12
2017-05-29T04:48:08.150Z,932.13
2017-05-29T04:48:20.581Z,932.13
2017-05-29T04:48:33.511Z,932.14
2017-05-29T04:48:46.954Z,932.11
2017-05-29T04:49:00.357Z,932.14
2017-05-29T04:49:13.795Z,932.14
2017-05-29T04:49:27.261Z,932.12